sensor_id;sensor_type;location;lat;lon;timestamp;P1;durP1;ratioP1;P2;durP2;ratioP2
77226;SDS011;66234;47.642;19.144;2023-05-16T00:01:59;5.13;;;4.47;;
77226;SDS011;66234;47.642;19.144;2023-05-16T00:05:02;5.57;;;4.70;;
77226;SDS011;66234;47.642;19.144;2023-05-16T00:08:09;5.68;;;4.40;;
77226;SDS011;66234;47.642;19.144;2023-05-16T00:11:11;7.57;;;4.40;;
77226;SDS011;66234;47.642;19.144;2023-05-16T00:14:14;5.30;;;4.20;;
77226;SDS011;66234;47.642;19.144;2023-05-16T00:17:17;7.50;;;5.18;;
77226;SDS011;66234;47.642;19.144;2023-05-16T00:20:21;7.70;;;3.60;;
77226;SDS011;66234;47.642;19.144;2023-05-16T00:23:26;3.88;;;3.30;;
77226;SDS011;66234;47.642;19.144;2023-05-16T00:26:28;5.50;;;3.37;;
77226;SDS011;66234;47.642;19.144;2023-05-16T00:29:31;3.97;;;3.23;;
77226;SDS011;66234;47.642;19.144;2023-05-16T00:32:34;6.45;;;3.80;;
77226;SDS011;66234;47.642;19.144;2023-05-16T00:35:37;3.83;;;3.17;;
77226;SDS011;66234;47.642;19.144;2023-05-16T00:38:40;2.97;;;2.67;;
77226;SDS011;66234;47.642;19.144;2023-05-16T00:41:42;3.97;;;3.13;;
77226;SDS011;66234;47.642;19.144;2023-05-16T00:44:46;3.47;;;2.90;;
77226;SDS011;66234;47.642;19.144;2023-05-16T00:47:50;4.13;;;2.95;;
77226;SDS011;66234;47.642;19.144;2023-05-16T00:50:53;3.67;;;3.20;;
77226;SDS011;66234;47.642;19.144;2023-05-16T00:53:56;4.70;;;3.30;;
77226;SDS011;66234;47.642;19.144;2023-05-16T00:56:59;6.20;;;3.33;;
77226;SDS011;66234;47.642;19.144;2023-05-16T01:00:03;3.73;;;2.97;;
77226;SDS011;66234;47.642;19.144;2023-05-16T01:03:09;4.05;;;3.08;;
77226;SDS011;66234;47.642;19.144;2023-05-16T01:06:13;3.17;;;2.88;;
77226;SDS011;66234;47.642;19.144;2023-05-16T01:09:15;3.92;;;2.70;;
77226;SDS011;66234;47.642;19.144;2023-05-16T01:12:36;3.33;;;2.73;;
77226;SDS011;66234;47.642;19.144;2023-05-16T01:16:04;2.80;;;2.60;;
77226;SDS011;66234;47.642;19.144;2023-05-16T01:22:29;4.90;;;2.90;;
77226;SDS011;66234;47.642;19.144;2023-05-16T01:25:46;3.92;;;3.20;;
77226;SDS011;66234;47.642;19.144;2023-05-16T01:28:53;7.23;;;3.20;;
77226;SDS011;66234;47.642;19.144;2023-05-16T01:31:56;3.00;;;2.70;;
77226;SDS011;66234;47.642;19.144;2023-05-16T01:34:59;4.72;;;2.95;;
77226;SDS011;66234;47.642;19.144;2023-05-16T01:41:20;3.70;;;3.33;;
77226;SDS011;66234;47.642;19.144;2023-05-16T01:48:06;5.47;;;3.23;;
77226;SDS011;66234;47.642;19.144;2023-05-16T01:51:12;5.00;;;3.78;;
77226;SDS011;66234;47.642;19.144;2023-05-16T01:54:15;6.10;;;3.20;;
77226;SDS011;66234;47.642;19.144;2023-05-16T01:57:20;3.60;;;3.30;;
77226;SDS011;66234;47.642;19.144;2023-05-16T02:00:27;5.23;;;3.63;;
77226;SDS011;66234;47.642;19.144;2023-05-16T02:03:34;4.33;;;3.07;;
77226;SDS011;66234;47.642;19.144;2023-05-16T02:06:36;3.20;;;2.83;;
77226;SDS011;66234;47.642;19.144;2023-05-16T02:09:39;3.95;;;3.20;;
77226;SDS011;66234;47.642;19.144;2023-05-16T02:12:42;4.55;;;3.10;;
77226;SDS011;66234;47.642;19.144;2023-05-16T02:15:44;2.97;;;2.67;;
77226;SDS011;66234;47.642;19.144;2023-05-16T02:18:47;3.60;;;3.00;;
77226;SDS011;66234;47.642;19.144;2023-05-16T02:21:50;6.38;;;3.17;;
77226;SDS011;66234;47.642;19.144;2023-05-16T02:24:52;3.83;;;3.03;;
77226;SDS011;66234;47.642;19.144;2023-05-16T02:27:55;3.70;;;3.20;;
77226;SDS011;66234;47.642;19.144;2023-05-16T02:30:58;5.07;;;3.37;;
77226;SDS011;66234;47.642;19.144;2023-05-16T02:34:01;5.83;;;3.30;;
77226;SDS011;66234;47.642;19.144;2023-05-16T02:37:04;6.70;;;3.03;;
77226;SDS011;66234;47.642;19.144;2023-05-16T02:40:07;3.75;;;3.05;;
77226;SDS011;66234;47.642;19.144;2023-05-16T02:43:11;3.67;;;3.10;;
77226;SDS011;66234;47.642;19.144;2023-05-16T02:46:20;4.43;;;3.13;;
77226;SDS011;66234;47.642;19.144;2023-05-16T02:49:24;4.27;;;3.20;;
77226;SDS011;66234;47.642;19.144;2023-05-16T02:52:27;4.35;;;3.80;;
77226;SDS011;66234;47.642;19.144;2023-05-16T02:55:30;3.90;;;3.45;;
77226;SDS011;66234;47.642;19.144;2023-05-16T02:58:32;5.50;;;4.05;;
77226;SDS011;66234;47.642;19.144;2023-05-16T03:01:35;4.47;;;3.87;;
77226;SDS011;66234;47.642;19.144;2023-05-16T03:04:39;9.27;;;3.60;;
77226;SDS011;66234;47.642;19.144;2023-05-16T03:07:41;4.55;;;3.42;;
77226;SDS011;66234;47.642;19.144;2023-05-16T03:10:44;4.80;;;3.17;;
77226;SDS011;66234;47.642;19.144;2023-05-16T03:13:48;4.75;;;3.78;;
77226;SDS011;66234;47.642;19.144;2023-05-16T03:16:50;4.83;;;3.37;;
77226;SDS011;66234;47.642;19.144;2023-05-16T03:19:53;5.50;;;3.60;;
77226;SDS011;66234;47.642;19.144;2023-05-16T03:22:56;5.82;;;3.50;;
77226;SDS011;66234;47.642;19.144;2023-05-16T03:25:58;3.25;;;2.90;;
77226;SDS011;66234;47.642;19.144;2023-05-16T03:29:01;4.70;;;3.05;;
77226;SDS011;66234;47.642;19.144;2023-05-16T03:32:03;5.53;;;3.53;;
77226;SDS011;66234;47.642;19.144;2023-05-16T03:35:07;3.97;;;3.57;;
77226;SDS011;66234;47.642;19.144;2023-05-16T03:38:10;4.35;;;3.45;;
77226;SDS011;66234;47.642;19.144;2023-05-16T03:41:13;4.93;;;3.90;;
77226;SDS011;66234;47.642;19.144;2023-05-16T03:44:16;4.65;;;3.03;;
77226;SDS011;66234;47.642;19.144;2023-05-16T03:47:19;4.70;;;3.20;;
77226;SDS011;66234;47.642;19.144;2023-05-16T03:50:21;4.20;;;3.53;;
77226;SDS011;66234;47.642;19.144;2023-05-16T03:53:24;3.65;;;3.08;;
77226;SDS011;66234;47.642;19.144;2023-05-16T03:56:26;4.25;;;2.85;;
77226;SDS011;66234;47.642;19.144;2023-05-16T03:59:29;3.83;;;2.38;;
77226;SDS011;66234;47.642;19.144;2023-05-16T04:02:32;3.90;;;2.70;;
77226;SDS011;66234;47.642;19.144;2023-05-16T04:05:35;3.23;;;2.33;;
77226;SDS011;66234;47.642;19.144;2023-05-16T04:08:37;3.40;;;2.65;;
77226;SDS011;66234;47.642;19.144;2023-05-16T04:11:41;4.35;;;2.67;;
77226;SDS011;66234;47.642;19.144;2023-05-16T04:14:44;2.15;;;1.92;;
77226;SDS011;66234;47.642;19.144;2023-05-16T04:17:46;2.63;;;2.00;;
77226;SDS011;66234;47.642;19.144;2023-05-16T04:20:49;2.40;;;1.80;;
77226;SDS011;66234;47.642;19.144;2023-05-16T04:23:51;2.20;;;1.80;;
77226;SDS011;66234;47.642;19.144;2023-05-16T04:26:54;2.63;;;1.85;;
77226;SDS011;66234;47.642;19.144;2023-05-16T04:29:57;3.28;;;2.10;;
77226;SDS011;66234;47.642;19.144;2023-05-16T04:33:01;2.77;;;2.00;;
77226;SDS011;66234;47.642;19.144;2023-05-16T04:36:04;2.90;;;1.60;;
77226;SDS011;66234;47.642;19.144;2023-05-16T04:39:07;3.72;;;2.20;;
77226;SDS011;66234;47.642;19.144;2023-05-16T04:42:09;3.42;;;1.60;;
77226;SDS011;66234;47.642;19.144;2023-05-16T04:45:12;1.63;;;1.45;;
77226;SDS011;66234;47.642;19.144;2023-05-16T04:48:15;2.03;;;1.40;;
77226;SDS011;66234;47.642;19.144;2023-05-16T04:51:18;2.53;;;1.70;;
77226;SDS011;66234;47.642;19.144;2023-05-16T04:54:20;3.13;;;1.42;;
77226;SDS011;66234;47.642;19.144;2023-05-16T04:57:23;2.05;;;1.20;;
77226;SDS011;66234;47.642;19.144;2023-05-16T05:00:25;1.60;;;1.20;;
77226;SDS011;66234;47.642;19.144;2023-05-16T05:03:28;1.80;;;1.40;;
77226;SDS011;66234;47.642;19.144;2023-05-16T05:06:31;3.50;;;1.80;;
77226;SDS011;66234;47.642;19.144;2023-05-16T05:09:33;2.42;;;1.63;;
77226;SDS011;66234;47.642;19.144;2023-05-16T05:12:36;3.30;;;1.75;;
77226;SDS011;66234;47.642;19.144;2023-05-16T05:15:39;2.53;;;1.30;;
77226;SDS011;66234;47.642;19.144;2023-05-16T05:18:41;2.90;;;1.50;;
77226;SDS011;66234;47.642;19.144;2023-05-16T05:21:45;2.00;;;1.40;;
77226;SDS011;66234;47.642;19.144;2023-05-16T05:24:48;3.50;;;2.45;;
77226;SDS011;66234;47.642;19.144;2023-05-16T05:27:50;2.25;;;1.92;;
77226;SDS011;66234;47.642;19.144;2023-05-16T05:30:53;6.05;;;1.60;;
77226;SDS011;66234;47.642;19.144;2023-05-16T05:33:55;3.97;;;1.53;;
77226;SDS011;66234;47.642;19.144;2023-05-16T05:36:58;2.93;;;1.93;;
77226;SDS011;66234;47.642;19.144;2023-05-16T05:40:01;5.50;;;2.42;;
77226;SDS011;66234;47.642;19.144;2023-05-16T05:43:05;12.25;;;5.10;;
77226;SDS011;66234;47.642;19.144;2023-05-16T05:46:07;7.10;;;2.38;;
77226;SDS011;66234;47.642;19.144;2023-05-16T05:49:10;3.10;;;1.80;;
77226;SDS011;66234;47.642;19.144;2023-05-16T05:52:14;2.80;;;2.07;;
77226;SDS011;66234;47.642;19.144;2023-05-16T05:55:17;3.97;;;1.70;;
77226;SDS011;66234;47.642;19.144;2023-05-16T05:58:20;3.50;;;1.60;;
77226;SDS011;66234;47.642;19.144;2023-05-16T06:01:22;2.00;;;1.40;;
77226;SDS011;66234;47.642;19.144;2023-05-16T06:04:25;1.60;;;1.40;;
77226;SDS011;66234;47.642;19.144;2023-05-16T06:07:29;7.10;;;1.63;;
77226;SDS011;66234;47.642;19.144;2023-05-16T06:10:32;2.58;;;1.40;;
77226;SDS011;66234;47.642;19.144;2023-05-16T06:13:34;2.70;;;1.48;;
77226;SDS011;66234;47.642;19.144;2023-05-16T06:16:37;2.10;;;1.50;;
77226;SDS011;66234;47.642;19.144;2023-05-16T06:19:41;2.83;;;1.90;;
77226;SDS011;66234;47.642;19.144;2023-05-16T06:22:44;3.57;;;1.30;;
77226;SDS011;66234;47.642;19.144;2023-05-16T06:25:47;2.67;;;1.67;;
77226;SDS011;66234;47.642;19.144;2023-05-16T06:28:49;4.50;;;1.98;;
77226;SDS011;66234;47.642;19.144;2023-05-16T06:31:52;3.28;;;1.90;;
77226;SDS011;66234;47.642;19.144;2023-05-16T06:34:55;2.57;;;1.70;;
77226;SDS011;66234;47.642;19.144;2023-05-16T06:37:58;2.43;;;1.60;;
77226;SDS011;66234;47.642;19.144;2023-05-16T06:41:01;1.83;;;1.50;;
77226;SDS011;66234;47.642;19.144;2023-05-16T06:44:04;2.63;;;1.42;;
77226;SDS011;66234;47.642;19.144;2023-05-16T06:47:07;1.95;;;1.60;;
77226;SDS011;66234;47.642;19.144;2023-05-16T06:50:10;2.70;;;1.90;;
77226;SDS011;66234;47.642;19.144;2023-05-16T06:53:15;2.80;;;1.80;;
77226;SDS011;66234;47.642;19.144;2023-05-16T06:56:20;2.67;;;1.80;;
77226;SDS011;66234;47.642;19.144;2023-05-16T06:59:24;2.30;;;1.98;;
77226;SDS011;66234;47.642;19.144;2023-05-16T07:02:29;4.10;;;2.63;;
77226;SDS011;66234;47.642;19.144;2023-05-16T07:05:32;3.93;;;2.33;;
77226;SDS011;66234;47.642;19.144;2023-05-16T07:08:35;3.40;;;2.33;;
77226;SDS011;66234;47.642;19.144;2023-05-16T07:11:39;3.65;;;2.20;;
77226;SDS011;66234;47.642;19.144;2023-05-16T07:14:42;4.35;;;3.03;;
77226;SDS011;66234;47.642;19.144;2023-05-16T07:17:44;6.47;;;3.42;;
77226;SDS011;66234;47.642;19.144;2023-05-16T07:20:47;5.73;;;2.53;;
77226;SDS011;66234;47.642;19.144;2023-05-16T07:23:50;3.10;;;2.30;;
77226;SDS011;66234;47.642;19.144;2023-05-16T07:26:52;2.63;;;2.40;;
77226;SDS011;66234;47.642;19.144;2023-05-16T07:29:55;2.80;;;2.25;;
77226;SDS011;66234;47.642;19.144;2023-05-16T07:32:57;3.83;;;3.10;;
77226;SDS011;66234;47.642;19.144;2023-05-16T07:36:00;5.77;;;2.10;;
77226;SDS011;66234;47.642;19.144;2023-05-16T07:39:17;3.57;;;2.50;;
77226;SDS011;66234;47.642;19.144;2023-05-16T07:42:20;3.08;;;2.22;;
77226;SDS011;66234;47.642;19.144;2023-05-16T07:45:23;3.53;;;2.53;;
77226;SDS011;66234;47.642;19.144;2023-05-16T07:48:25;2.90;;;2.20;;
77226;SDS011;66234;47.642;19.144;2023-05-16T07:51:28;2.80;;;2.40;;
77226;SDS011;66234;47.642;19.144;2023-05-16T07:54:31;4.67;;;2.70;;
77226;SDS011;66234;47.642;19.144;2023-05-16T07:57:34;6.30;;;3.00;;
77226;SDS011;66234;47.642;19.144;2023-05-16T08:00:38;3.97;;;2.97;;
77226;SDS011;66234;47.642;19.144;2023-05-16T08:03:41;7.15;;;3.50;;
77226;SDS011;66234;47.642;19.144;2023-05-16T08:06:44;5.87;;;3.13;;
77226;SDS011;66234;47.642;19.144;2023-05-16T08:09:46;5.30;;;3.20;;
77226;SDS011;66234;47.642;19.144;2023-05-16T08:12:50;7.45;;;3.45;;
77226;SDS011;66234;47.642;19.144;2023-05-16T08:15:54;5.07;;;3.45;;
77226;SDS011;66234;47.642;19.144;2023-05-16T08:18:59;5.38;;;3.92;;
77226;SDS011;66234;47.642;19.144;2023-05-16T08:22:14;5.63;;;3.73;;
77226;SDS011;66234;47.642;19.144;2023-05-16T08:25:17;5.43;;;3.90;;
77226;SDS011;66234;47.642;19.144;2023-05-16T08:28:20;8.32;;;4.57;;
77226;SDS011;66234;47.642;19.144;2023-05-16T08:31:23;9.10;;;4.50;;
77226;SDS011;66234;47.642;19.144;2023-05-16T08:34:31;10.77;;;6.05;;
77226;SDS011;66234;47.642;19.144;2023-05-16T08:37:33;9.80;;;5.17;;
77226;SDS011;66234;47.642;19.144;2023-05-16T08:40:36;10.57;;;6.13;;
77226;SDS011;66234;47.642;19.144;2023-05-16T08:43:39;10.90;;;5.95;;
77226;SDS011;66234;47.642;19.144;2023-05-16T08:46:41;12.40;;;6.65;;
77226;SDS011;66234;47.642;19.144;2023-05-16T08:49:48;11.90;;;6.75;;
77226;SDS011;66234;47.642;19.144;2023-05-16T08:52:53;11.30;;;7.17;;
77226;SDS011;66234;47.642;19.144;2023-05-16T08:55:56;12.07;;;6.60;;
77226;SDS011;66234;47.642;19.144;2023-05-16T08:59:01;10.30;;;6.53;;
77226;SDS011;66234;47.642;19.144;2023-05-16T09:02:04;9.25;;;5.50;;
77226;SDS011;66234;47.642;19.144;2023-05-16T09:05:08;13.52;;;8.38;;
77226;SDS011;66234;47.642;19.144;2023-05-16T09:08:12;13.40;;;8.37;;
77226;SDS011;66234;47.642;19.144;2023-05-16T09:11:15;14.60;;;6.93;;
77226;SDS011;66234;47.642;19.144;2023-05-16T09:14:18;11.13;;;6.88;;
77226;SDS011;66234;47.642;19.144;2023-05-16T09:17:21;15.95;;;9.80;;
77226;SDS011;66234;47.642;19.144;2023-05-16T09:20:45;15.18;;;9.82;;
77226;SDS011;66234;47.642;19.144;2023-05-16T09:23:51;14.97;;;8.67;;
77226;SDS011;66234;47.642;19.144;2023-05-16T09:26:54;14.50;;;9.37;;
77226;SDS011;66234;47.642;19.144;2023-05-16T09:29:57;12.63;;;9.18;;
77226;SDS011;66234;47.642;19.144;2023-05-16T09:33:00;10.90;;;6.60;;
77226;SDS011;66234;47.642;19.144;2023-05-16T09:36:04;10.00;;;6.72;;
77226;SDS011;66234;47.642;19.144;2023-05-16T09:39:07;11.43;;;7.20;;
77226;SDS011;66234;47.642;19.144;2023-05-16T09:42:13;9.80;;;6.20;;
77226;SDS011;66234;47.642;19.144;2023-05-16T09:45:23;8.10;;;5.90;;
77226;SDS011;66234;47.642;19.144;2023-05-16T09:48:26;8.82;;;6.28;;
77226;SDS011;66234;47.642;19.144;2023-05-16T09:51:29;8.52;;;6.22;;
77226;SDS011;66234;47.642;19.144;2023-05-16T09:54:34;8.03;;;6.27;;
77226;SDS011;66234;47.642;19.144;2023-05-16T09:57:37;7.00;;;5.40;;
77226;SDS011;66234;47.642;19.144;2023-05-16T10:00:42;8.45;;;5.82;;
77226;SDS011;66234;47.642;19.144;2023-05-16T10:03:45;8.52;;;6.15;;
77226;SDS011;66234;47.642;19.144;2023-05-16T10:06:49;8.25;;;5.75;;
77226;SDS011;66234;47.642;19.144;2023-05-16T10:09:55;9.83;;;6.03;;
77226;SDS011;66234;47.642;19.144;2023-05-16T10:12:58;6.97;;;5.43;;
77226;SDS011;66234;47.642;19.144;2023-05-16T10:16:13;8.27;;;6.10;;
77226;SDS011;66234;47.642;19.144;2023-05-16T10:19:19;9.75;;;6.82;;
77226;SDS011;66234;47.642;19.144;2023-05-16T10:22:25;9.35;;;7.13;;
77226;SDS011;66234;47.642;19.144;2023-05-16T10:25:33;10.03;;;6.47;;
77226;SDS011;66234;47.642;19.144;2023-05-16T10:28:40;10.57;;;7.50;;
77226;SDS011;66234;47.642;19.144;2023-05-16T10:31:45;10.25;;;7.90;;
77226;SDS011;66234;47.642;19.144;2023-05-16T10:34:49;9.05;;;6.68;;
77226;SDS011;66234;47.642;19.144;2023-05-16T10:37:53;8.70;;;6.47;;
77226;SDS011;66234;47.642;19.144;2023-05-16T10:40:57;9.17;;;6.53;;
77226;SDS011;66234;47.642;19.144;2023-05-16T10:44:00;7.53;;;5.70;;
77226;SDS011;66234;47.642;19.144;2023-05-16T10:47:03;11.18;;;6.20;;
77226;SDS011;66234;47.642;19.144;2023-05-16T10:50:07;9.43;;;6.75;;
77226;SDS011;66234;47.642;19.144;2023-05-16T10:56:12;9.43;;;7.00;;
77226;SDS011;66234;47.642;19.144;2023-05-16T10:59:22;9.00;;;6.30;;
77226;SDS011;66234;47.642;19.144;2023-05-16T11:02:27;9.80;;;6.93;;
77226;SDS011;66234;47.642;19.144;2023-05-16T11:05:35;9.43;;;6.70;;
77226;SDS011;66234;47.642;19.144;2023-05-16T11:08:56;11.60;;;6.85;;
77226;SDS011;66234;47.642;19.144;2023-05-16T11:12:08;10.07;;;5.83;;
77226;SDS011;66234;47.642;19.144;2023-05-16T11:18:25;10.77;;;6.40;;
77226;SDS011;66234;47.642;19.144;2023-05-16T11:25:09;10.57;;;6.68;;
77226;SDS011;66234;47.642;19.144;2023-05-16T11:28:12;9.87;;;6.67;;
77226;SDS011;66234;47.642;19.144;2023-05-16T11:31:18;9.10;;;6.57;;
77226;SDS011;66234;47.642;19.144;2023-05-16T11:34:21;10.02;;;7.18;;
77226;SDS011;66234;47.642;19.144;2023-05-16T11:37:24;8.73;;;5.82;;
77226;SDS011;66234;47.642;19.144;2023-05-16T11:40:27;8.55;;;4.82;;
77226;SDS011;66234;47.642;19.144;2023-05-16T11:43:35;5.80;;;3.97;;
77226;SDS011;66234;47.642;19.144;2023-05-16T11:46:40;5.23;;;3.53;;
77226;SDS011;66234;47.642;19.144;2023-05-16T11:49:43;6.47;;;4.30;;
77226;SDS011;66234;47.642;19.144;2023-05-16T11:52:49;6.88;;;3.97;;
77226;SDS011;66234;47.642;19.144;2023-05-16T11:55:55;5.55;;;3.42;;
77226;SDS011;66234;47.642;19.144;2023-05-16T11:58:58;7.10;;;4.07;;
77226;SDS011;66234;47.642;19.144;2023-05-16T12:02:02;5.10;;;3.70;;
77226;SDS011;66234;47.642;19.144;2023-05-16T12:05:07;8.00;;;3.60;;
77226;SDS011;66234;47.642;19.144;2023-05-16T12:08:14;5.22;;;3.72;;
77226;SDS011;66234;47.642;19.144;2023-05-16T12:11:17;5.32;;;3.22;;
77226;SDS011;66234;47.642;19.144;2023-05-16T12:14:20;5.20;;;3.07;;
77226;SDS011;66234;47.642;19.144;2023-05-16T12:17:24;4.57;;;3.00;;
77226;SDS011;66234;47.642;19.144;2023-05-16T12:20:26;6.75;;;3.45;;
77226;SDS011;66234;47.642;19.144;2023-05-16T12:23:29;6.55;;;3.30;;
77226;SDS011;66234;47.642;19.144;2023-05-16T12:26:34;5.00;;;3.65;;
77226;SDS011;66234;47.642;19.144;2023-05-16T12:29:37;4.80;;;3.23;;
77226;SDS011;66234;47.642;19.144;2023-05-16T12:32:40;5.93;;;3.60;;
77226;SDS011;66234;47.642;19.144;2023-05-16T12:35:43;6.55;;;4.05;;
77226;SDS011;66234;47.642;19.144;2023-05-16T12:38:48;6.05;;;3.70;;
77226;SDS011;66234;47.642;19.144;2023-05-16T12:41:50;5.30;;;3.95;;
77226;SDS011;66234;47.642;19.144;2023-05-16T12:44:56;5.93;;;4.10;;
77226;SDS011;66234;47.642;19.144;2023-05-16T12:48:03;8.07;;;4.37;;
77226;SDS011;66234;47.642;19.144;2023-05-16T12:51:14;6.00;;;4.72;;
77226;SDS011;66234;47.642;19.144;2023-05-16T12:54:20;5.97;;;4.88;;
77226;SDS011;66234;47.642;19.144;2023-05-16T12:57:26;8.18;;;5.63;;
77226;SDS011;66234;47.642;19.144;2023-05-16T13:00:29;8.23;;;5.57;;
77226;SDS011;66234;47.642;19.144;2023-05-16T13:03:35;10.63;;;6.20;;
77226;SDS011;66234;47.642;19.144;2023-05-16T13:06:38;8.77;;;6.07;;
77226;SDS011;66234;47.642;19.144;2023-05-16T13:09:59;7.20;;;5.10;;
77226;SDS011;66234;47.642;19.144;2023-05-16T13:13:01;8.48;;;5.25;;
77226;SDS011;66234;47.642;19.144;2023-05-16T13:16:05;11.33;;;6.00;;
77226;SDS011;66234;47.642;19.144;2023-05-16T13:19:09;8.80;;;5.33;;
77226;SDS011;66234;47.642;19.144;2023-05-16T13:22:13;9.88;;;5.35;;
77226;SDS011;66234;47.642;19.144;2023-05-16T13:25:16;8.18;;;5.57;;
77226;SDS011;66234;47.642;19.144;2023-05-16T13:28:22;8.50;;;5.47;;
77226;SDS011;66234;47.642;19.144;2023-05-16T13:31:25;6.77;;;4.37;;
77226;SDS011;66234;47.642;19.144;2023-05-16T13:34:27;8.43;;;4.20;;
77226;SDS011;66234;47.642;19.144;2023-05-16T13:37:30;7.22;;;4.60;;
77226;SDS011;66234;47.642;19.144;2023-05-16T13:40:33;7.85;;;4.60;;
77226;SDS011;66234;47.642;19.144;2023-05-16T13:43:36;7.50;;;5.90;;
77226;SDS011;66234;47.642;19.144;2023-05-16T13:46:39;7.50;;;5.30;;
77226;SDS011;66234;47.642;19.144;2023-05-16T13:49:41;10.47;;;5.63;;
77226;SDS011;66234;47.642;19.144;2023-05-16T13:52:44;9.50;;;5.60;;
77226;SDS011;66234;47.642;19.144;2023-05-16T13:55:49;8.95;;;5.18;;
77226;SDS011;66234;47.642;19.144;2023-05-16T13:58:52;10.20;;;6.30;;
77226;SDS011;66234;47.642;19.144;2023-05-16T14:02:00;9.77;;;4.63;;
77226;SDS011;66234;47.642;19.144;2023-05-16T14:05:03;6.53;;;4.70;;
77226;SDS011;66234;47.642;19.144;2023-05-16T14:08:07;8.23;;;4.85;;
77226;SDS011;66234;47.642;19.144;2023-05-16T14:11:09;9.68;;;5.55;;
77226;SDS011;66234;47.642;19.144;2023-05-16T14:14:12;6.53;;;4.47;;
77226;SDS011;66234;47.642;19.144;2023-05-16T14:17:14;9.40;;;3.70;;
77226;SDS011;66234;47.642;19.144;2023-05-16T14:20:17;6.80;;;4.63;;
77226;SDS011;66234;47.642;19.144;2023-05-16T14:23:20;7.97;;;4.35;;
77226;SDS011;66234;47.642;19.144;2023-05-16T14:26:22;10.93;;;5.57;;
77226;SDS011;66234;47.642;19.144;2023-05-16T14:29:26;7.75;;;4.47;;
77226;SDS011;66234;47.642;19.144;2023-05-16T14:32:29;7.53;;;5.03;;
77226;SDS011;66234;47.642;19.144;2023-05-16T14:35:35;7.63;;;4.97;;
77226;SDS011;66234;47.642;19.144;2023-05-16T14:38:39;13.15;;;4.75;;
77226;SDS011;66234;47.642;19.144;2023-05-16T14:41:42;9.25;;;5.32;;
77226;SDS011;66234;47.642;19.144;2023-05-16T14:44:47;8.43;;;5.22;;
77226;SDS011;66234;47.642;19.144;2023-05-16T14:47:50;6.67;;;5.30;;
77226;SDS011;66234;47.642;19.144;2023-05-16T14:50:53;7.87;;;5.27;;
77226;SDS011;66234;47.642;19.144;2023-05-16T14:53:56;6.70;;;5.20;;
77226;SDS011;66234;47.642;19.144;2023-05-16T14:56:59;15.48;;;6.55;;
77226;SDS011;66234;47.642;19.144;2023-05-16T15:00:02;10.15;;;6.00;;
77226;SDS011;66234;47.642;19.144;2023-05-16T15:03:06;8.13;;;4.87;;
77226;SDS011;66234;47.642;19.144;2023-05-16T15:06:09;11.07;;;5.23;;
77226;SDS011;66234;47.642;19.144;2023-05-16T15:09:12;9.35;;;5.55;;
77226;SDS011;66234;47.642;19.144;2023-05-16T15:12:15;6.25;;;3.97;;
77226;SDS011;66234;47.642;19.144;2023-05-16T15:15:18;10.73;;;4.53;;
77226;SDS011;66234;47.642;19.144;2023-05-16T15:18:20;14.27;;;5.27;;
77226;SDS011;66234;47.642;19.144;2023-05-16T15:21:24;13.20;;;5.97;;
77226;SDS011;66234;47.642;19.144;2023-05-16T15:24:27;10.82;;;5.40;;
77226;SDS011;66234;47.642;19.144;2023-05-16T15:27:30;14.85;;;6.20;;
77226;SDS011;66234;47.642;19.144;2023-05-16T15:30:33;11.52;;;4.55;;
77226;SDS011;66234;47.642;19.144;2023-05-16T15:33:38;9.17;;;5.33;;
77226;SDS011;66234;47.642;19.144;2023-05-16T15:36:42;9.40;;;5.43;;
77226;SDS011;66234;47.642;19.144;2023-05-16T15:39:45;12.60;;;5.78;;
77226;SDS011;66234;47.642;19.144;2023-05-16T15:42:47;8.75;;;5.28;;
77226;SDS011;66234;47.642;19.144;2023-05-16T15:45:51;10.50;;;5.55;;
77226;SDS011;66234;47.642;19.144;2023-05-16T15:48:53;12.43;;;8.40;;
77226;SDS011;66234;47.642;19.144;2023-05-16T15:51:56;15.07;;;8.77;;
77226;SDS011;66234;47.642;19.144;2023-05-16T15:54:59;8.88;;;6.25;;
77226;SDS011;66234;47.642;19.144;2023-05-16T15:58:01;8.57;;;5.80;;
77226;SDS011;66234;47.642;19.144;2023-05-16T16:01:05;17.67;;;10.57;;
77226;SDS011;66234;47.642;19.144;2023-05-16T16:04:08;13.37;;;9.00;;
77226;SDS011;66234;47.642;19.144;2023-05-16T16:07:11;13.83;;;8.53;;
77226;SDS011;66234;47.642;19.144;2023-05-16T16:10:15;12.07;;;7.50;;
77226;SDS011;66234;47.642;19.144;2023-05-16T16:13:18;9.23;;;6.63;;
77226;SDS011;66234;47.642;19.144;2023-05-16T16:16:22;10.25;;;6.47;;
77226;SDS011;66234;47.642;19.144;2023-05-16T16:19:25;14.87;;;9.73;;
77226;SDS011;66234;47.642;19.144;2023-05-16T16:22:28;16.83;;;9.77;;
77226;SDS011;66234;47.642;19.144;2023-05-16T16:25:30;13.32;;;8.15;;
77226;SDS011;66234;47.642;19.144;2023-05-16T16:28:33;12.52;;;6.95;;
77226;SDS011;66234;47.642;19.144;2023-05-16T16:31:36;8.88;;;5.43;;
77226;SDS011;66234;47.642;19.144;2023-05-16T16:34:39;11.87;;;5.33;;
77226;SDS011;66234;47.642;19.144;2023-05-16T16:37:42;10.57;;;6.20;;
77226;SDS011;66234;47.642;19.144;2023-05-16T16:41:05;14.35;;;6.95;;
77226;SDS011;66234;47.642;19.144;2023-05-16T16:44:07;12.30;;;7.10;;
77226;SDS011;66234;47.642;19.144;2023-05-16T16:47:10;13.30;;;6.18;;
77226;SDS011;66234;47.642;19.144;2023-05-16T16:50:14;12.20;;;7.43;;
77226;SDS011;66234;47.642;19.144;2023-05-16T16:53:16;14.40;;;7.73;;
77226;SDS011;66234;47.642;19.144;2023-05-16T16:56:20;13.25;;;5.90;;
77226;SDS011;66234;47.642;19.144;2023-05-16T16:59:22;13.13;;;6.40;;
77226;SDS011;66234;47.642;19.144;2023-05-16T17:02:25;15.15;;;8.10;;
77226;SDS011;66234;47.642;19.144;2023-05-16T17:05:29;9.00;;;6.60;;
77226;SDS011;66234;47.642;19.144;2023-05-16T17:08:31;8.73;;;6.30;;
77226;SDS011;66234;47.642;19.144;2023-05-16T17:11:34;9.88;;;6.30;;
77226;SDS011;66234;47.642;19.144;2023-05-16T17:14:38;18.15;;;10.30;;
77226;SDS011;66234;47.642;19.144;2023-05-16T17:17:40;11.95;;;7.63;;
77226;SDS011;66234;47.642;19.144;2023-05-16T17:20:44;10.47;;;7.47;;
77226;SDS011;66234;47.642;19.144;2023-05-16T17:23:47;11.63;;;7.87;;
77226;SDS011;66234;47.642;19.144;2023-05-16T17:26:52;15.48;;;9.88;;
77226;SDS011;66234;47.642;19.144;2023-05-16T17:29:57;11.85;;;8.15;;
77226;SDS011;66234;47.642;19.144;2023-05-16T17:32:59;12.85;;;8.60;;
77226;SDS011;66234;47.642;19.144;2023-05-16T17:36:02;16.87;;;10.20;;
77226;SDS011;66234;47.642;19.144;2023-05-16T17:39:05;17.83;;;11.20;;
77226;SDS011;66234;47.642;19.144;2023-05-16T17:42:09;16.38;;;10.23;;
77226;SDS011;66234;47.642;19.144;2023-05-16T17:45:13;15.10;;;10.63;;
77226;SDS011;66234;47.642;19.144;2023-05-16T17:48:17;16.83;;;11.13;;
77226;SDS011;66234;47.642;19.144;2023-05-16T17:51:20;18.60;;;12.40;;
77226;SDS011;66234;47.642;19.144;2023-05-16T17:54:23;13.43;;;8.40;;
77226;SDS011;66234;47.642;19.144;2023-05-16T17:57:28;17.60;;;9.00;;
77226;SDS011;66234;47.642;19.144;2023-05-16T18:00:31;14.38;;;9.23;;
77226;SDS011;66234;47.642;19.144;2023-05-16T18:03:34;16.45;;;9.98;;
77226;SDS011;66234;47.642;19.144;2023-05-16T18:06:37;20.10;;;10.47;;
77226;SDS011;66234;47.642;19.144;2023-05-16T18:09:41;19.13;;;11.40;;
77226;SDS011;66234;47.642;19.144;2023-05-16T18:12:44;19.00;;;10.80;;
77226;SDS011;66234;47.642;19.144;2023-05-16T18:15:47;14.60;;;8.75;;
77226;SDS011;66234;47.642;19.144;2023-05-16T18:18:49;15.60;;;10.25;;
77226;SDS011;66234;47.642;19.144;2023-05-16T18:21:52;14.90;;;9.27;;
77226;SDS011;66234;47.642;19.144;2023-05-16T18:24:55;12.53;;;7.67;;
77226;SDS011;66234;47.642;19.144;2023-05-16T18:27:57;11.63;;;7.15;;